sensor_id;sensor_type;location;lat;lon;timestamp;P1;durP1;ratioP1;P2;durP2;ratioP2
60917;SDS011;46792;38.854;-9.384;2023-03-23T00:00:06;18.08;;;5.07;;
60917;SDS011;46792;38.854;-9.384;2023-03-23T00:02:14;23.80;;;4.97;;
60917;SDS011;46792;38.854;-9.384;2023-03-23T00:04:16;21.02;;;5.03;;
60917;SDS011;46792;38.854;-9.384;2023-03-23T00:06:17;28.27;;;6.10;;
60917;SDS011;46792;38.854;-9.384;2023-03-23T00:08:19;34.50;;;5.82;;
60917;SDS011;46792;38.854;-9.384;2023-03-23T00:10:22;24.23;;;5.20;;
60917;SDS011;46792;38.854;-9.384;2023-03-23T00:12:42;28.33;;;5.32;;
60917;SDS011;46792;38.854;-9.384;2023-03-23T00:14:45;29.80;;;7.28;;
60917;SDS011;46792;38.854;-9.384;2023-03-23T00:16:46;34.33;;;7.50;;
60917;SDS011;46792;38.854;-9.384;2023-03-23T00:21:47;38.58;;;6.72;;
60917;SDS011;46792;38.854;-9.384;2023-03-23T00:23:47;28.48;;;7.70;;
60917;SDS011;46792;38.854;-9.384;2023-03-23T00:25:49;33.33;;;6.40;;
60917;SDS011;46792;38.854;-9.384;2023-03-23T00:27:56;36.80;;;8.80;;
60917;SDS011;46792;38.854;-9.384;2023-03-23T00:29:57;33.55;;;7.20;;
60917;SDS011;46792;38.854;-9.384;2023-03-23T00:31:57;28.55;;;6.57;;
60917;SDS011;46792;38.854;-9.384;2023-03-23T00:34:17;29.92;;;5.68;;
60917;SDS011;46792;38.854;-9.384;2023-03-23T00:36:38;29.02;;;6.22;;
60917;SDS011;46792;38.854;-9.384;2023-03-23T00:39:02;37.17;;;6.38;;
60917;SDS011;46792;38.854;-9.384;2023-03-23T00:41:03;31.08;;;5.30;;
60917;SDS011;46792;38.854;-9.384;2023-03-23T00:43:04;21.70;;;5.18;;
60917;SDS011;46792;38.854;-9.384;2023-03-23T00:45:05;23.02;;;4.85;;
60917;SDS011;46792;38.854;-9.384;2023-03-23T00:47:11;31.50;;;6.40;;
60917;SDS011;46792;38.854;-9.384;2023-03-23T00:49:12;22.48;;;5.80;;
60917;SDS011;46792;38.854;-9.384;2023-03-23T00:51:14;24.60;;;7.72;;
60917;SDS011;46792;38.854;-9.384;2023-03-23T00:53:15;29.63;;;7.95;;
60917;SDS011;46792;38.854;-9.384;2023-03-23T00:55:16;33.78;;;6.25;;
60917;SDS011;46792;38.854;-9.384;2023-03-23T00:57:17;31.17;;;6.13;;
60917;SDS011;46792;38.854;-9.384;2023-03-23T00:59:18;27.33;;;6.00;;
60917;SDS011;46792;38.854;-9.384;2023-03-23T01:01:19;21.15;;;5.45;;
60917;SDS011;46792;38.854;-9.384;2023-03-23T01:03:19;24.00;;;5.47;;
60917;SDS011;46792;38.854;-9.384;2023-03-23T01:05:20;30.42;;;6.75;;
60917;SDS011;46792;38.854;-9.384;2023-03-23T01:07:21;22.65;;;5.22;;
60917;SDS011;46792;38.854;-9.384;2023-03-23T01:09:23;22.55;;;4.70;;
60917;SDS011;46792;38.854;-9.384;2023-03-23T01:11:24;25.02;;;5.38;;
60917;SDS011;46792;38.854;-9.384;2023-03-23T01:13:25;18.80;;;4.88;;
60917;SDS011;46792;38.854;-9.384;2023-03-23T01:15:26;23.17;;;4.95;;
60917;SDS011;46792;38.854;-9.384;2023-03-23T01:17:28;17.58;;;4.97;;
60917;SDS011;46792;38.854;-9.384;2023-03-23T01:19:30;30.70;;;5.10;;
60917;SDS011;46792;38.854;-9.384;2023-03-23T01:21:31;27.75;;;4.85;;
60917;SDS011;46792;38.854;-9.384;2023-03-23T01:23:32;33.47;;;4.97;;
60917;SDS011;46792;38.854;-9.384;2023-03-23T01:25:34;20.95;;;4.68;;
60917;SDS011;46792;38.854;-9.384;2023-03-23T01:27:36;27.90;;;4.63;;
60917;SDS011;46792;38.854;-9.384;2023-03-23T01:29:37;20.33;;;5.25;;
60917;SDS011;46792;38.854;-9.384;2023-03-23T01:31:37;31.33;;;5.65;;
60917;SDS011;46792;38.854;-9.384;2023-03-23T01:33:40;22.67;;;4.35;;
60917;SDS011;46792;38.854;-9.384;2023-03-23T01:35:41;37.50;;;6.85;;
60917;SDS011;46792;38.854;-9.384;2023-03-23T01:37:42;26.55;;;5.10;;
60917;SDS011;46792;38.854;-9.384;2023-03-23T01:40:02;30.45;;;6.95;;
60917;SDS011;46792;38.854;-9.384;2023-03-23T01:42:04;26.67;;;5.35;;
60917;SDS011;46792;38.854;-9.384;2023-03-23T01:44:06;39.25;;;5.30;;
60917;SDS011;46792;38.854;-9.384;2023-03-23T01:46:21;24.88;;;4.47;;
60917;SDS011;46792;38.854;-9.384;2023-03-23T01:48:35;27.05;;;4.60;;
60917;SDS011;46792;38.854;-9.384;2023-03-23T01:51:01;28.23;;;3.83;;
60917;SDS011;46792;38.854;-9.384;2023-03-23T01:53:15;17.90;;;4.38;;
60917;SDS011;46792;38.854;-9.384;2023-03-23T01:55:16;18.33;;;4.95;;
60917;SDS011;46792;38.854;-9.384;2023-03-23T01:57:19;25.17;;;5.22;;
60917;SDS011;46792;38.854;-9.384;2023-03-23T01:59:24;18.08;;;4.70;;
60917;SDS011;46792;38.854;-9.384;2023-03-23T02:01:46;19.27;;;4.43;;
60917;SDS011;46792;38.854;-9.384;2023-03-23T02:03:47;24.52;;;5.15;;
60917;SDS011;46792;38.854;-9.384;2023-03-23T02:05:51;24.13;;;4.78;;
60917;SDS011;46792;38.854;-9.384;2023-03-23T02:08:13;26.77;;;5.25;;
60917;SDS011;46792;38.854;-9.384;2023-03-23T02:10:16;27.80;;;5.55;;
60917;SDS011;46792;38.854;-9.384;2023-03-23T02:12:17;27.73;;;5.20;;
60917;SDS011;46792;38.854;-9.384;2023-03-23T02:14:20;14.73;;;4.32;;
60917;SDS011;46792;38.854;-9.384;2023-03-23T02:18:37;30.70;;;5.88;;
60917;SDS011;46792;38.854;-9.384;2023-03-23T02:23:15;14.23;;;4.70;;
60917;SDS011;46792;38.854;-9.384;2023-03-23T02:25:26;22.55;;;4.80;;
60917;SDS011;46792;38.854;-9.384;2023-03-23T02:36:30;24.00;;;4.43;;
60917;SDS011;46792;38.854;-9.384;2023-03-23T02:40:53;12.95;;;4.15;;
60917;SDS011;46792;38.854;-9.384;2023-03-23T02:42:56;14.35;;;3.65;;
60917;SDS011;46792;38.854;-9.384;2023-03-23T02:44:58;14.93;;;3.60;;
60917;SDS011;46792;38.854;-9.384;2023-03-23T02:47:04;19.35;;;3.97;;
60917;SDS011;46792;38.854;-9.384;2023-03-23T02:49:11;8.00;;;3.60;;
60917;SDS011;46792;38.854;-9.384;2023-03-23T02:51:15;22.77;;;5.60;;
60917;SDS011;46792;38.854;-9.384;2023-03-23T02:53:21;13.02;;;4.43;;
60917;SDS011;46792;38.854;-9.384;2023-03-23T02:55:27;16.90;;;3.80;;
60917;SDS011;46792;38.854;-9.384;2023-03-23T02:57:30;18.17;;;4.32;;
60917;SDS011;46792;38.854;-9.384;2023-03-23T02:59:34;12.25;;;3.72;;
60917;SDS011;46792;38.854;-9.384;2023-03-23T03:03:38;16.85;;;4.05;;
60917;SDS011;46792;38.854;-9.384;2023-03-23T03:08:47;11.00;;;3.15;;
60917;SDS011;46792;38.854;-9.384;2023-03-23T03:10:59;12.73;;;2.80;;
60917;SDS011;46792;38.854;-9.384;2023-03-23T03:15:46;15.10;;;3.17;;
60917;SDS011;46792;38.854;-9.384;2023-03-23T03:20:30;6.60;;;2.22;;
60917;SDS011;46792;38.854;-9.384;2023-03-23T03:22:33;7.45;;;2.55;;
60917;SDS011;46792;38.854;-9.384;2023-03-23T03:26:42;6.50;;;2.63;;
60917;SDS011;46792;38.854;-9.384;2023-03-23T03:29:01;8.93;;;2.47;;
60917;SDS011;46792;38.854;-9.384;2023-03-23T03:31:03;8.63;;;2.33;;
60917;SDS011;46792;38.854;-9.384;2023-03-23T03:33:06;4.80;;;2.30;;
60917;SDS011;46792;38.854;-9.384;2023-03-23T03:35:11;6.47;;;2.33;;
60917;SDS011;46792;38.854;-9.384;2023-03-23T03:37:13;9.02;;;2.70;;
60917;SDS011;46792;38.854;-9.384;2023-03-23T03:39:16;8.95;;;2.20;;
60917;SDS011;46792;38.854;-9.384;2023-03-23T03:41:18;9.70;;;2.35;;
60917;SDS011;46792;38.854;-9.384;2023-03-23T03:43:21;11.15;;;3.10;;
60917;SDS011;46792;38.854;-9.384;2023-03-23T03:45:21;16.17;;;4.05;;
60917;SDS011;46792;38.854;-9.384;2023-03-23T03:47:23;10.50;;;3.17;;
60917;SDS011;46792;38.854;-9.384;2023-03-23T03:49:24;14.90;;;3.35;;
60917;SDS011;46792;38.854;-9.384;2023-03-23T03:51:28;14.05;;;3.15;;
60917;SDS011;46792;38.854;-9.384;2023-03-23T03:53:30;17.45;;;4.50;;
60917;SDS011;46792;38.854;-9.384;2023-03-23T03:55:31;19.45;;;3.78;;
60917;SDS011;46792;38.854;-9.384;2023-03-23T03:57:39;9.27;;;3.00;;
60917;SDS011;46792;38.854;-9.384;2023-03-23T04:00:14;5.85;;;2.88;;
60917;SDS011;46792;38.854;-9.384;2023-03-23T04:02:16;6.60;;;2.92;;
60917;SDS011;46792;38.854;-9.384;2023-03-23T04:04:20;13.65;;;4.50;;
60917;SDS011;46792;38.854;-9.384;2023-03-23T04:06:22;11.38;;;3.70;;
60917;SDS011;46792;38.854;-9.384;2023-03-23T04:08:25;15.95;;;3.70;;
60917;SDS011;46792;38.854;-9.384;2023-03-23T04:10:28;10.07;;;3.42;;
60917;SDS011;46792;38.854;-9.384;2023-03-23T04:12:29;19.55;;;5.05;;
60917;SDS011;46792;38.854;-9.384;2023-03-23T04:14:30;14.75;;;3.65;;
60917;SDS011;46792;38.854;-9.384;2023-03-23T04:16:31;16.85;;;4.05;;
60917;SDS011;46792;38.854;-9.384;2023-03-23T04:18:34;15.63;;;3.65;;
60917;SDS011;46792;38.854;-9.384;2023-03-23T04:20:35;16.15;;;3.92;;
60917;SDS011;46792;38.854;-9.384;2023-03-23T04:22:38;29.80;;;4.82;;
60917;SDS011;46792;38.854;-9.384;2023-03-23T04:24:39;16.00;;;3.67;;
60917;SDS011;46792;38.854;-9.384;2023-03-23T04:26:45;17.65;;;4.05;;
60917;SDS011;46792;38.854;-9.384;2023-03-23T04:28:55;11.30;;;3.92;;
60917;SDS011;46792;38.854;-9.384;2023-03-23T04:31:08;11.90;;;3.60;;
60917;SDS011;46792;38.854;-9.384;2023-03-23T04:35:30;8.50;;;3.03;;
60917;SDS011;46792;38.854;-9.384;2023-03-23T04:37:43;11.82;;;4.05;;
60917;SDS011;46792;38.854;-9.384;2023-03-23T04:39:48;16.95;;;4.07;;
60917;SDS011;46792;38.854;-9.384;2023-03-23T04:41:50;16.45;;;3.78;;
60917;SDS011;46792;38.854;-9.384;2023-03-23T04:43:56;18.88;;;4.18;;
60917;SDS011;46792;38.854;-9.384;2023-03-23T04:46:03;19.98;;;4.35;;
60917;SDS011;46792;38.854;-9.384;2023-03-23T04:48:09;9.77;;;3.40;;
60917;SDS011;46792;38.854;-9.384;2023-03-23T04:50:22;15.15;;;4.05;;
60917;SDS011;46792;38.854;-9.384;2023-03-23T04:52:24;15.52;;;3.78;;
60917;SDS011;46792;38.854;-9.384;2023-03-23T04:54:29;8.85;;;3.67;;
60917;SDS011;46792;38.854;-9.384;2023-03-23T04:56:34;7.88;;;3.17;;
60917;SDS011;46792;38.854;-9.384;2023-03-23T04:58:40;15.82;;;4.35;;
60917;SDS011;46792;38.854;-9.384;2023-03-23T05:01:10;8.40;;;3.58;;
60917;SDS011;46792;38.854;-9.384;2023-03-23T05:03:25;14.13;;;3.25;;
60917;SDS011;46792;38.854;-9.384;2023-03-23T05:05:29;19.52;;;4.13;;
60917;SDS011;46792;38.854;-9.384;2023-03-23T05:07:32;11.57;;;3.60;;
60917;SDS011;46792;38.854;-9.384;2023-03-23T05:09:51;17.80;;;3.58;;
60917;SDS011;46792;38.854;-9.384;2023-03-23T05:12:11;16.80;;;4.22;;
60917;SDS011;46792;38.854;-9.384;2023-03-23T05:14:30;20.33;;;4.63;;
60917;SDS011;46792;38.854;-9.384;2023-03-23T05:16:40;14.23;;;3.50;;
60917;SDS011;46792;38.854;-9.384;2023-03-23T05:18:42;11.63;;;3.83;;
60917;SDS011;46792;38.854;-9.384;2023-03-23T05:21:21;11.45;;;3.42;;
60917;SDS011;46792;38.854;-9.384;2023-03-23T05:23:26;12.10;;;3.85;;
60917;SDS011;46792;38.854;-9.384;2023-03-23T05:25:34;9.50;;;2.95;;
60917;SDS011;46792;38.854;-9.384;2023-03-23T05:27:42;11.90;;;3.22;;
60917;SDS011;46792;38.854;-9.384;2023-03-23T05:30:09;9.52;;;4.10;;
60917;SDS011;46792;38.854;-9.384;2023-03-23T05:32:15;13.35;;;4.03;;
60917;SDS011;46792;38.854;-9.384;2023-03-23T05:34:18;12.40;;;4.07;;
60917;SDS011;46792;38.854;-9.384;2023-03-23T05:36:38;16.40;;;4.40;;
60917;SDS011;46792;38.854;-9.384;2023-03-23T05:38:47;10.00;;;2.58;;
60917;SDS011;46792;38.854;-9.384;2023-03-23T05:40:50;10.30;;;4.38;;
60917;SDS011;46792;38.854;-9.384;2023-03-23T05:42:58;9.15;;;3.08;;
60917;SDS011;46792;38.854;-9.384;2023-03-23T05:45:19;15.00;;;3.42;;
60917;SDS011;46792;38.854;-9.384;2023-03-23T05:47:23;12.65;;;3.63;;
60917;SDS011;46792;38.854;-9.384;2023-03-23T05:49:30;11.52;;;4.10;;
60917;SDS011;46792;38.854;-9.384;2023-03-23T05:51:31;7.60;;;3.15;;
60917;SDS011;46792;38.854;-9.384;2023-03-23T05:53:32;12.18;;;3.20;;
60917;SDS011;46792;38.854;-9.384;2023-03-23T05:55:34;15.73;;;3.35;;
60917;SDS011;46792;38.854;-9.384;2023-03-23T05:57:54;14.43;;;3.95;;
60917;SDS011;46792;38.854;-9.384;2023-03-23T06:00:02;9.07;;;4.13;;
60917;SDS011;46792;38.854;-9.384;2023-03-23T06:05:00;15.52;;;3.58;;
60917;SDS011;46792;38.854;-9.384;2023-03-23T06:07:07;12.85;;;3.60;;
60917;SDS011;46792;38.854;-9.384;2023-03-23T06:09:24;25.77;;;4.57;;
60917;SDS011;46792;38.854;-9.384;2023-03-23T06:11:40;9.48;;;3.85;;
60917;SDS011;46792;38.854;-9.384;2023-03-23T06:14:19;12.05;;;4.43;;
60917;SDS011;46792;38.854;-9.384;2023-03-23T06:16:20;13.32;;;5.78;;
60917;SDS011;46792;38.854;-9.384;2023-03-23T06:18:30;15.23;;;5.70;;
60917;SDS011;46792;38.854;-9.384;2023-03-23T06:21:02;10.75;;;4.13;;
60917;SDS011;46792;38.854;-9.384;2023-03-23T06:23:22;11.52;;;4.05;;
60917;SDS011;46792;38.854;-9.384;2023-03-23T06:25:25;14.40;;;4.38;;
60917;SDS011;46792;38.854;-9.384;2023-03-23T06:27:26;11.15;;;3.50;;
60917;SDS011;46792;38.854;-9.384;2023-03-23T06:29:27;8.75;;;3.33;;
60917;SDS011;46792;38.854;-9.384;2023-03-23T06:31:30;15.43;;;3.50;;
60917;SDS011;46792;38.854;-9.384;2023-03-23T06:33:52;14.82;;;3.47;;
60917;SDS011;46792;38.854;-9.384;2023-03-23T06:36:18;10.95;;;3.58;;
60917;SDS011;46792;38.854;-9.384;2023-03-23T06:38:27;7.97;;;2.85;;
60917;SDS011;46792;38.854;-9.384;2023-03-23T06:40:29;10.45;;;3.42;;
60917;SDS011;46792;38.854;-9.384;2023-03-23T06:42:31;13.52;;;2.85;;
60917;SDS011;46792;38.854;-9.384;2023-03-23T06:44:55;6.85;;;2.83;;
60917;SDS011;46792;38.854;-9.384;2023-03-23T06:46:58;12.15;;;3.20;;
60917;SDS011;46792;38.854;-9.384;2023-03-23T06:49:01;9.50;;;3.40;;
60917;SDS011;46792;38.854;-9.384;2023-03-23T06:51:15;9.85;;;3.22;;
60917;SDS011;46792;38.854;-9.384;2023-03-23T06:53:21;11.50;;;3.78;;
60917;SDS011;46792;38.854;-9.384;2023-03-23T06:55:23;19.58;;;4.35;;
60917;SDS011;46792;38.854;-9.384;2023-03-23T06:57:24;8.27;;;3.80;;
60917;SDS011;46792;38.854;-9.384;2023-03-23T06:59:26;6.65;;;2.80;;
60917;SDS011;46792;38.854;-9.384;2023-03-23T07:01:26;6.55;;;3.17;;
60917;SDS011;46792;38.854;-9.384;2023-03-23T07:03:33;18.45;;;3.60;;
60917;SDS011;46792;38.854;-9.384;2023-03-23T07:05:34;5.47;;;2.58;;
60917;SDS011;46792;38.854;-9.384;2023-03-23T07:07:54;7.05;;;3.17;;
60917;SDS011;46792;38.854;-9.384;2023-03-23T07:10:08;9.68;;;2.78;;
60917;SDS011;46792;38.854;-9.384;2023-03-23T07:12:10;6.65;;;2.88;;
60917;SDS011;46792;38.854;-9.384;2023-03-23T07:14:20;11.77;;;2.63;;
60917;SDS011;46792;38.854;-9.384;2023-03-23T07:16:22;8.55;;;2.35;;
60917;SDS011;46792;38.854;-9.384;2023-03-23T07:18:25;9.90;;;2.65;;
60917;SDS011;46792;38.854;-9.384;2023-03-23T07:20:28;12.23;;;2.78;;
60917;SDS011;46792;38.854;-9.384;2023-03-23T07:22:29;5.65;;;2.60;;
60917;SDS011;46792;38.854;-9.384;2023-03-23T07:24:38;6.00;;;2.28;;
60917;SDS011;46792;38.854;-9.384;2023-03-23T07:26:57;17.23;;;3.80;;
60917;SDS011;46792;38.854;-9.384;2023-03-23T07:29:20;11.85;;;3.78;;
60917;SDS011;46792;38.854;-9.384;2023-03-23T07:31:30;12.57;;;3.28;;
60917;SDS011;46792;38.854;-9.384;2023-03-23T07:33:31;11.48;;;3.15;;
60917;SDS011;46792;38.854;-9.384;2023-03-23T07:35:32;9.60;;;2.88;;
60917;SDS011;46792;38.854;-9.384;2023-03-23T07:37:37;12.50;;;2.50;;
60917;SDS011;46792;38.854;-9.384;2023-03-23T07:39:38;15.57;;;2.72;;
60917;SDS011;46792;38.854;-9.384;2023-03-23T07:41:38;8.27;;;2.70;;
60917;SDS011;46792;38.854;-9.384;2023-03-23T07:43:49;6.65;;;2.85;;
60917;SDS011;46792;38.854;-9.384;2023-03-23T07:46:15;10.60;;;3.08;;
60917;SDS011;46792;38.854;-9.384;2023-03-23T07:48:35;17.45;;;3.08;;
60917;SDS011;46792;38.854;-9.384;2023-03-23T07:50:37;13.70;;;2.95;;
60917;SDS011;46792;38.854;-9.384;2023-03-23T07:52:41;18.65;;;4.20;;
60917;SDS011;46792;38.854;-9.384;2023-03-23T07:54:43;8.75;;;3.38;;
60917;SDS011;46792;38.854;-9.384;2023-03-23T07:56:52;15.07;;;3.92;;
60917;SDS011;46792;38.854;-9.384;2023-03-23T07:59:06;11.05;;;2.80;;
60917;SDS011;46792;38.854;-9.384;2023-03-23T08:01:10;13.93;;;3.15;;
60917;SDS011;46792;38.854;-9.384;2023-03-23T08:03:13;12.38;;;2.53;;
60917;SDS011;46792;38.854;-9.384;2023-03-23T08:05:23;8.32;;;2.58;;
60917;SDS011;46792;38.854;-9.384;2023-03-23T08:07:44;14.38;;;3.08;;
60917;SDS011;46792;38.854;-9.384;2023-03-23T08:10:09;7.53;;;2.47;;
60917;SDS011;46792;38.854;-9.384;2023-03-23T08:12:29;14.73;;;2.50;;
60917;SDS011;46792;38.854;-9.384;2023-03-23T08:14:48;10.40;;;2.92;;
60917;SDS011;46792;38.854;-9.384;2023-03-23T08:17:10;10.75;;;2.47;;
60917;SDS011;46792;38.854;-9.384;2023-03-23T08:19:22;4.88;;;2.30;;
60917;SDS011;46792;38.854;-9.384;2023-03-23T08:21:55;5.93;;;2.55;;
60917;SDS011;46792;38.854;-9.384;2023-03-23T08:23:55;6.45;;;2.40;;
60917;SDS011;46792;38.854;-9.384;2023-03-23T08:26:24;12.60;;;2.17;;
60917;SDS011;46792;38.854;-9.384;2023-03-23T08:28:44;8.65;;;3.25;;
60917;SDS011;46792;38.854;-9.384;2023-03-23T08:30:54;16.55;;;3.10;;
60917;SDS011;46792;38.854;-9.384;2023-03-23T08:33:13;7.40;;;1.98;;
60917;SDS011;46792;38.854;-9.384;2023-03-23T08:35:24;7.40;;;2.15;;
60917;SDS011;46792;38.854;-9.384;2023-03-23T08:37:52;13.15;;;3.42;;
60917;SDS011;46792;38.854;-9.384;2023-03-23T08:40:14;4.88;;;2.22;;
60917;SDS011;46792;38.854;-9.384;2023-03-23T08:42:27;7.78;;;1.88;;
60917;SDS011;46792;38.854;-9.384;2023-03-23T08:44:59;22.45;;;3.08;;
60917;SDS011;46792;38.854;-9.384;2023-03-23T08:47:33;15.68;;;3.83;;
60917;SDS011;46792;38.854;-9.384;2023-03-23T08:49:55;11.70;;;2.58;;
60917;SDS011;46792;38.854;-9.384;2023-03-23T08:52:14;16.45;;;2.95;;
60917;SDS011;46792;38.854;-9.384;2023-03-23T08:54:34;10.35;;;2.20;;
60917;SDS011;46792;38.854;-9.384;2023-03-23T08:57:02;10.88;;;1.75;;
60917;SDS011;46792;38.854;-9.384;2023-03-23T09:02:46;18.02;;;2.85;;
60917;SDS011;46792;38.854;-9.384;2023-03-23T09:04:53;6.35;;;1.63;;
60917;SDS011;46792;38.854;-9.384;2023-03-23T09:07:20;6.68;;;1.73;;
60917;SDS011;46792;38.854;-9.384;2023-03-23T09:09:24;7.03;;;1.52;;
60917;SDS011;46792;38.854;-9.384;2023-03-23T09:11:24;9.40;;;1.95;;
60917;SDS011;46792;38.854;-9.384;2023-03-23T09:13:25;6.05;;;2.10;;
60917;SDS011;46792;38.854;-9.384;2023-03-23T09:15:26;7.07;;;1.80;;
60917;SDS011;46792;38.854;-9.384;2023-03-23T09:17:27;6.65;;;1.77;;
60917;SDS011;46792;38.854;-9.384;2023-03-23T09:19:28;3.08;;;1.83;;
60917;SDS011;46792;38.854;-9.384;2023-03-23T09:21:29;7.18;;;1.40;;
60917;SDS011;46792;38.854;-9.384;2023-03-23T09:23:30;8.70;;;1.30;;
60917;SDS011;46792;38.854;-9.384;2023-03-23T09:25:34;4.35;;;1.35;;
60917;SDS011;46792;38.854;-9.384;2023-03-23T09:27:40;8.95;;;1.90;;
60917;SDS011;46792;38.854;-9.384;2023-03-23T09:29:42;9.80;;;1.85;;
60917;SDS011;46792;38.854;-9.384;2023-03-23T09:31:44;7.28;;;2.33;;
60917;SDS011;46792;38.854;-9.384;2023-03-23T09:33:46;8.90;;;1.80;;
60917;SDS011;46792;38.854;-9.384;2023-03-23T09:35:47;7.97;;;1.60;;
60917;SDS011;46792;38.854;-9.384;2023-03-23T09:37:48;6.25;;;1.70;;
60917;SDS011;46792;38.854;-9.384;2023-03-23T09:39:50;11.57;;;2.15;;
60917;SDS011;46792;38.854;-9.384;2023-03-23T09:42:12;10.32;;;1.95;;
60917;SDS011;46792;38.854;-9.384;2023-03-23T09:49:08;5.75;;;1.55;;
60917;SDS011;46792;38.854;-9.384;2023-03-23T09:53:43;5.57;;;1.92;;
60917;SDS011;46792;38.854;-9.384;2023-03-23T09:55:51;12.57;;;2.63;;
60917;SDS011;46792;38.854;-9.384;2023-03-23T10:00:40;11.20;;;1.65;;
60917;SDS011;46792;38.854;-9.384;2023-03-23T10:04:50;12.40;;;1.50;;
60917;SDS011;46792;38.854;-9.384;2023-03-23T10:07:08;7.68;;;1.67;;
60917;SDS011;46792;38.854;-9.384;2023-03-23T10:09:12;9.55;;;1.63;;
60917;SDS011;46792;38.854;-9.384;2023-03-23T10:11:38;10.63;;;1.83;;
60917;SDS011;46792;38.854;-9.384;2023-03-23T10:14:17;5.20;;;1.65;;
60917;SDS011;46792;38.854;-9.384;2023-03-23T10:16:29;15.05;;;2.47;;
60917;SDS011;46792;38.854;-9.384;2023-03-23T10:20:56;9.05;;;1.80;;
60917;SDS011;46792;38.854;-9.384;2023-03-23T10:25:22;4.25;;;1.27;;
60917;SDS011;46792;38.854;-9.384;2023-03-23T10:34:56;3.75;;;1.70;;
60917;SDS011;46792;38.854;-9.384;2023-03-23T10:39:23;7.40;;;3.03;;
60917;SDS011;46792;38.854;-9.384;2023-03-23T10:41:28;7.43;;;1.70;;
60917;SDS011;46792;38.854;-9.384;2023-03-23T10:43:30;12.82;;;2.17;;
60917;SDS011;46792;38.854;-9.384;2023-03-23T10:45:31;7.40;;;2.78;;
60917;SDS011;46792;38.854;-9.384;2023-03-23T10:47:35;4.22;;;1.50;;
60917;SDS011;46792;38.854;-9.384;2023-03-23T10:49:45;3.28;;;1.50;;
60917;SDS011;46792;38.854;-9.384;2023-03-23T10:51:49;6.87;;;1.60;;
60917;SDS011;46792;38.854;-9.384;2023-03-23T10:54:32;7.75;;;1.45;;
60917;SDS011;46792;38.854;-9.384;2023-03-23T10:56:42;7.32;;;1.88;;
60917;SDS011;46792;38.854;-9.384;2023-03-23T10:58:45;2.50;;;2.08;;
60917;SDS011;46792;38.854;-9.384;2023-03-23T11:00:46;5.18;;;1.42;;
60917;SDS011;46792;38.854;-9.384;2023-03-23T11:02:57;7.25;;;1.42;;
60917;SDS011;46792;38.854;-9.384;2023-03-23T11:05:00;8.32;;;1.80;;
60917;SDS011;46792;38.854;-9.384;2023-03-23T11:07:03;5.80;;;1.55;;
60917;SDS011;46792;38.854;-9.384;2023-03-23T11:09:13;3.60;;;1.20;;
60917;SDS011;46792;38.854;-9.384;2023-03-23T11:11:18;7.82;;;2.17;;
60917;SDS011;46792;38.854;-9.384;2023-03-23T11:13:22;3.10;;;1.38;;
60917;SDS011;46792;38.854;-9.384;2023-03-23T11:17:33;7.30;;;1.60;;
60917;SDS011;46792;38.854;-9.384;2023-03-23T11:19:35;3.80;;;1.60;;
60917;SDS011;46792;38.854;-9.384;2023-03-23T11:21:37;7.45;;;1.92;;
60917;SDS011;46792;38.854;-9.384;2023-03-23T11:23:40;10.77;;;2.10;;
60917;SDS011;46792;38.854;-9.384;2023-03-23T11:28:09;9.25;;;1.13;;
60917;SDS011;46792;38.854;-9.384;2023-03-23T11:30:11;13.52;;;1.83;;
60917;SDS011;46792;38.854;-9.384;2023-03-23T11:32:31;8.98;;;1.90;;
60917;SDS011;46792;38.854;-9.384;2023-03-23T11:34:33;9.55;;;1.40;;
60917;SDS011;46792;38.854;-9.384;2023-03-23T11:36:57;17.35;;;1.73;;
60917;SDS011;46792;38.854;-9.384;2023-03-23T11:39:03;12.90;;;1.90;;
60917;SDS011;46792;38.854;-9.384;2023-03-23T11:41:23;9.73;;;1.70;;
60917;SDS011;46792;38.854;-9.384;2023-03-23T11:43:24;6.35;;;2.13;;
60917;SDS011;46792;38.854;-9.384;2023-03-23T11:45:38;11.30;;;3.30;;
60917;SDS011;46792;38.854;-9.384;2023-03-23T11:54:34;5.97;;;1.30;;
60917;SDS011;46792;38.854;-9.384;2023-03-23T11:56:56;4.18;;;0.98;;
60917;SDS011;46792;38.854;-9.384;2023-03-23T11:58:58;4.43;;;1.23;;
60917;SDS011;46792;38.854;-9.384;2023-03-23T12:03:43;13.30;;;3.88;;
60917;SDS011;46792;38.854;-9.384;2023-03-23T12:06:03;5.13;;;1.17;;
60917;SDS011;46792;38.854;-9.384;2023-03-23T12:10:59;4.53;;;1.02;;
60917;SDS011;46792;38.854;-9.384;2023-03-23T12:23:21;5.93;;;1.23;;
60917;SDS011;46792;38.854;-9.384;2023-03-23T12:34:40;7.77;;;1.43;;
60917;SDS011;46792;38.854;-9.384;2023-03-23T12:41:16;6.35;;;1.10;;
60917;SDS011;46792;38.854;-9.384;2023-03-23T12:43:35;6.15;;;1.73;;
60917;SDS011;46792;38.854;-9.384;2023-03-23T12:47:56;9.88;;;1.15;;
60917;SDS011;46792;38.854;-9.384;2023-03-23T12:50:02;7.70;;;1.15;;
60917;SDS011;46792;38.854;-9.384;2023-03-23T12:52:30;5.50;;;1.65;;
60917;SDS011;46792;38.854;-9.384;2023-03-23T12:54:47;5.00;;;1.17;;
60917;SDS011;46792;38.854;-9.384;2023-03-23T13:01:18;3.97;;;1.13;;
60917;SDS011;46792;38.854;-9.384;2023-03-23T13:05:54;10.00;;;1.80;;
60917;SDS011;46792;38.854;-9.384;2023-03-23T13:08:17;13.32;;;3.63;;
60917;SDS011;46792;38.854;-9.384;2023-03-23T13:12:28;4.00;;;1.33;;
60917;SDS011;46792;38.854;-9.384;2023-03-23T13:19:23;5.32;;;1.63;;
60917;SDS011;46792;38.854;-9.384;2023-03-23T13:24:15;5.70;;;2.45;;
60917;SDS011;46792;38.854;-9.384;2023-03-23T13:26:24;8.38;;;1.52;;
60917;SDS011;46792;38.854;-9.384;2023-03-23T13:32:35;11.63;;;1.75;;
60917;SDS011;46792;38.854;-9.384;2023-03-23T13:34:39;7.93;;;2.00;;
60917;SDS011;46792;38.854;-9.384;2023-03-23T13:36:41;7.50;;;1.50;;
60917;SDS011;46792;38.854;-9.384;2023-03-23T13:38:45;5.75;;;1.38;;
60917;SDS011;46792;38.854;-9.384;2023-03-23T13:40:49;9.25;;;1.73;;
60917;SDS011;46792;38.854;-9.384;2023-03-23T13:42:54;8.35;;;4.60;;
60917;SDS011;46792;38.854;-9.384;2023-03-23T13:45:18;4.97;;;1.38;;
60917;SDS011;46792;38.854;-9.384;2023-03-23T13:47:36;5.70;;;1.65;;
60917;SDS011;46792;38.854;-9.384;2023-03-23T13:49:57;5.50;;;1.20;;
60917;SDS011;46792;38.854;-9.384;2023-03-23T13:52:16;7.47;;;1.88;;
60917;SDS011;46792;38.854;-9.384;2023-03-23T13:58:51;11.68;;;1.85;;
60917;SDS011;46792;38.854;-9.384;2023-03-23T14:03:24;13.17;;;2.13;;
60917;SDS011;46792;38.854;-9.384;2023-03-23T14:10:32;4.65;;;1.30;;
60917;SDS011;46792;38.854;-9.384;2023-03-23T14:12:39;5.70;;;1.60;;
60917;SDS011;46792;38.854;-9.384;2023-03-23T14:14:41;8.60;;;1.98;;
60917;SDS011;46792;38.854;-9.384;2023-03-23T14:16:51;12.88;;;1.85;;
60917;SDS011;46792;38.854;-9.384;2023-03-23T14:18:56;13.95;;;1.67;;
60917;SDS011;46792;38.854;-9.384;2023-03-23T14:20:59;14.38;;;2.35;;
60917;SDS011;46792;38.854;-9.384;2023-03-23T14:23:01;11.30;;;2.08;;
60917;SDS011;46792;38.854;-9.384;2023-03-23T14:25:10;5.38;;;1.45;;
60917;SDS011;46792;38.854;-9.384;2023-03-23T14:27:22;8.05;;;1.52;;
60917;SDS011;46792;38.854;-9.384;2023-03-23T14:29:23;7.07;;;1.35;;
60917;SDS011;46792;38.854;-9.384;2023-03-23T14:31:24;5.55;;;1.60;;
60917;SDS011;46792;38.854;-9.384;2023-03-23T14:33:28;7.38;;;1.83;;
60917;SDS011;46792;38.854;-9.384;2023-03-23T14:35:30;7.13;;;1.88;;
60917;SDS011;46792;38.854;-9.384;2023-03-23T14:37:32;5.50;;;1.65;;
60917;SDS011;46792;38.854;-9.384;2023-03-23T14:39:35;13.38;;;1.73;;
60917;SDS011;46792;38.854;-9.384;2023-03-23T14:41:37;6.80;;;1.70;;
60917;SDS011;46792;38.854;-9.384;2023-03-23T14:43:39;9.15;;;1.60;;
60917;SDS011;46792;38.854;-9.384;2023-03-23T14:45:40;11.10;;;2.05;;
60917;SDS011;46792;38.854;-9.384;2023-03-23T14:47:48;8.88;;;1.58;;
60917;SDS011;46792;38.854;-9.384;2023-03-23T14:49:55;9.23;;;1.75;;
60917;SDS011;46792;38.854;-9.384;2023-03-23T14:52:02;8.18;;;1.75;;
60917;SDS011;46792;38.854;-9.384;2023-03-23T14:54:08;9.77;;;1.63;;